Time;durP1;ratioP1;P1;durP2;ratioP2;P2;SDS_P1;SDS_P2;PMS_P1;PMS_P2;Temp;Humidity;BMP_temperature;BMP_pressure;BME280_temperature;BME280_humidity;BME280_pressure;Samples;Min_cycle;Max_cycle;Signal;HPM_P1;HPM_P2
2022/08/09 00:01:32;;;;;;;8.10;5.15;;;;;;;18.61;67.85;102566.56;5124676;27;20123;-58
2022/08/09 00:03:58;;;;;;;7.78;4.70;;;;;;;18.66;67.67;102563.56;5113463;27;20118;-58
2022/08/09 00:06:26;;;;;;;9.57;4.90;;;;;;;18.56;67.78;102562.47;5090277;27;20062;-58
2022/08/09 00:08:52;;;;;;;6.53;4.53;;;;;;;18.51;67.85;102554.72;5114656;27;20035;-58
2022/08/09 00:11:18;;;;;;;5.85;4.93;;;;;;;18.62;67.80;102564.75;5114951;27;20031;-58
2022/08/09 00:13:44;;;;;;;6.45;5.18;;;;;;;18.56;67.94;102559.78;5106895;27;20083;-58
2022/08/09 00:16:10;;;;;;;5.68;5.05;;;;;;;18.56;68.07;102555.28;5142844;27;20429;-58
2022/08/09 00:18:36;;;;;;;7.80;4.50;;;;;;;18.45;68.23;102552.44;5131367;27;20093;-58
2022/08/09 00:21:06;;;;;;;5.93;4.78;;;;;;;18.45;68.40;102555.16;5125456;27;20039;-58
2022/08/09 00:23:32;;;;;;;7.47;5.13;;;;;;;18.29;68.61;102541.84;5114262;27;20030;-58
2022/08/09 00:25:58;;;;;;;6.47;4.50;;;;;;;18.36;68.42;102559.34;5126520;27;20027;-58
2022/08/09 00:28:23;;;;;;;5.38;4.88;;;;;;;18.37;68.21;102566.44;5112708;27;20031;-58
2022/08/09 00:30:50;;;;;;;8.65;5.22;;;;;;;18.29;68.71;102568.78;5121469;27;20368;-58
2022/08/09 00:33:15;;;;;;;8.30;4.70;;;;;;;18.29;68.51;102562.53;5131749;27;20091;-58
2022/08/09 00:35:41;;;;;;;8.10;5.20;;;;;;;18.32;68.42;102555.16;5099477;27;20387;-58
2022/08/09 00:38:08;;;;;;;5.57;4.97;;;;;;;18.26;68.53;102558.22;5112524;27;20372;-57
2022/08/09 00:40:34;;;;;;;6.93;4.80;;;;;;;18.24;68.63;102559.31;5128827;27;20035;-58
2022/08/09 00:42:59;;;;;;;6.50;4.68;;;;;;;18.17;68.85;102554.31;5112357;27;20046;-58
2022/08/09 00:45:25;;;;;;;7.05;4.65;;;;;;;18.21;68.71;102555.00;5094416;28;20457;-58
2022/08/09 00:47:51;;;;;;;7.18;4.78;;;;;;;18.29;68.32;102558.03;5104305;27;20031;-57
2022/08/09 00:50:16;;;;;;;8.70;4.93;;;;;;;18.24;68.32;102559.31;5132344;27;20444;-57
2022/08/09 00:52:42;;;;;;;6.70;4.80;;;;;;;18.09;68.66;102554.00;5096755;27;20507;-58
2022/08/09 00:55:09;;;;;;;7.88;4.47;;;;;;;18.21;68.55;102562.22;5119282;27;20043;-57
2022/08/09 00:57:34;;;;;;;6.22;4.95;;;;;;;18.17;68.51;102566.94;5132971;27;20051;-58
2022/08/09 01:00:00;;;;;;;5.93;4.68;;;;;;;18.06;68.74;102565.00;5131460;27;20054;-58
2022/08/09 01:02:28;;;;;;;7.55;5.00;;;;;;;18.01;68.98;102560.88;5131768;27;20141;-57
2022/08/09 01:05:04;;;;;;;8.15;4.93;;;;;;;18.02;68.70;102558.06;5120122;27;20019;-58
2022/08/09 01:07:40;;;;;;;6.95;4.22;;;;;;;18.06;68.39;102556.91;5112685;28;20031;-57
2022/08/09 01:10:05;;;;;;;8.43;4.63;;;;;;;18.03;68.62;102558.94;5134520;27;20456;-57
2022/08/09 01:12:54;;;;;;;7.35;4.90;;;;;;;18.09;68.18;102556.69;5153354;27;20015;-58
2022/08/09 01:15:27;;;;;;;8.65;4.68;;;;;;;18.09;68.30;102563.94;5136435;27;20083;-58
2022/08/09 01:18:07;;;;;;;6.72;4.95;;;;;;;17.93;68.52;102556.84;5131596;27;20030;-57
2022/08/09 01:20:51;;;;;;;;;;;;;;;18.13;67.09;102565.44;5123118;27;20023;-57
2022/08/09 01:23:45;;;;;;;6.60;4.72;;;;;;;17.87;68.63;102565.34;5117908;27;19986;-59
2022/08/09 01:26:29;;;;;;;6.05;5.05;;;;;;;17.84;68.75;102567.38;5094012;27;20176;-58
2022/08/09 01:28:55;;;;;;;6.43;4.70;;;;;;;17.62;69.57;102563.38;5097655;28;20118;-58
2022/08/09 01:31:31;;;;;;;6.07;4.50;;;;;;;17.75;69.47;102568.81;5120186;27;20027;-58
2022/08/09 01:34:01;;;;;;;5.30;4.80;;;;;;;17.68;69.84;102568.38;5123560;27;20023;-58
2022/08/09 01:36:27;;;;;;;7.70;4.55;;;;;;;17.61;69.80;102564.34;5124699;27;20039;-58
2022/08/09 01:38:57;;;;;;;5.70;4.88;;;;;;;17.66;69.52;102562.22;5128435;27;20034;-57
2022/08/09 01:41:27;;;;;;;6.93;4.65;;;;;;;17.64;69.72;102557.88;5112209;27;20079;-58
2022/08/09 01:43:59;;;;;;;7.85;5.05;;;;;;;17.61;70.21;102558.09;5109533;27;20039;-58
2022/08/09 01:46:31;;;;;;;6.32;5.25;;;;;;;17.53;69.95;102560.41;5130884;27;20036;-57
2022/08/09 01:49:02;;;;;;;7.35;4.75;;;;;;;17.41;70.10;102557.59;5116387;27;20039;-57
2022/08/09 01:51:29;;;;;;;6.15;4.82;;;;;;;17.35;70.25;102543.63;5130335;27;20036;-58
2022/08/09 01:53:57;;;;;;;7.25;5.00;;;;;;;17.33;70.77;102559.03;5113020;28;20099;-57
2022/08/09 01:56:25;;;;;;;7.57;5.20;;;;;;;17.34;70.51;102563.44;5122183;27;20053;-58
2022/08/09 01:58:52;;;;;;;11.18;5.28;;;;;;;17.44;69.88;102556.50;5131109;27;20019;-57
2022/08/09 02:01:23;;;;;;;9.23;5.13;;;;;;;17.37;70.37;102563.25;5131588;27;20104;-59
2022/08/09 02:03:51;;;;;;;9.95;5.07;;;;;;;17.38;70.22;102565.84;5124700;27;20020;-58
2022/08/09 02:07:07;;;;;;;6.47;4.90;;;;;;;17.30;70.43;102564.63;5077413;28;20035;-57
2022/08/09 02:09:05;;;;;;;5.45;4.78;;;;;;;17.38;70.52;102567.66;5114594;28;20039;-57
2022/08/09 02:11:32;;;;;;;6.90;5.28;;;;;;;17.29;70.67;102570.94;5132552;27;20387;-58
2022/08/09 02:14:01;;;;;;;6.93;4.93;;;;;;;17.22;70.79;102567.78;5130870;27;20063;-58
2022/08/09 02:16:29;;;;;;;7.20;5.70;;;;;;;17.31;70.78;102572.56;5124330;27;20479;-58
2022/08/09 02:18:55;;;;;;;6.95;5.13;;;;;;;17.24;70.85;102577.47;5116222;27;20019;-57
2022/08/09 02:21:22;;;;;;;7.30;5.07;;;;;;;17.23;70.76;102564.97;5116493;27;20080;-58
2022/08/09 02:23:58;;;;;;;7.90;5.93;;;;;;;17.26;70.50;102569.31;5134757;27;20054;-58
2022/08/09 02:26:28;;;;;;;5.82;4.82;;;;;;;17.29;70.34;102562.88;5116652;27;20448;-58
2022/08/09 02:28:59;;;;;;;6.45;5.00;;;;;;;17.20;71.03;102567.88;5130919;27;20023;-57
2022/08/09 02:31:31;;;;;;;8.15;4.85;;;;;;;17.20;70.61;102559.78;5109821;27;20015;-58
2022/08/09 02:34:00;;;;;;;8.05;5.75;;;;;;;17.18;70.87;102556.38;5117614;27;20028;-58
2022/08/09 02:36:39;;;;;;;6.53;4.75;;;;;;;17.25;70.23;102555.00;5115203;28;20093;-58
2022/08/09 02:39:07;;;;;;;5.82;4.90;;;;;;;17.22;70.42;102557.03;5118402;27;20146;-57
2022/08/09 02:41:53;;;;;;;7.93;4.78;;;;;;;17.31;69.95;102564.50;5115582;28;20031;-57
2022/08/09 02:44:24;;;;;;;7.35;5.25;;;;;;;17.29;70.35;102563.72;5107196;27;20124;-58
2022/08/09 02:46:52;;;;;;;5.82;4.97;;;;;;;17.27;70.29;102560.28;5124780;27;20472;-58
2022/08/09 02:49:18;;;;;;;6.85;5.35;;;;;;;17.22;70.77;102557.03;5142501;27;20110;-57
2022/08/09 02:51:49;;;;;;;11.18;5.60;;;;;;;17.21;70.84;102558.84;5136017;27;20106;-58
2022/08/09 02:54:19;;;;;;;8.00;5.28;;;;;;;17.13;70.80;102555.78;5132529;27;20035;-58
2022/08/09 02:56:48;;;;;;;6.82;5.10;;;;;;;17.19;70.74;102560.78;5115425;28;20111;-58
2022/08/09 02:59:15;;;;;;;7.97;5.32;;;;;;;17.10;70.98;102555.13;5120278;27;20027;-58
2022/08/09 03:01:45;;;;;;;7.32;5.32;;;;;;;16.96;71.60;102547.91;5122216;27;20031;-58
2022/08/09 03:04:12;;;;;;;6.97;5.40;;;;;;;16.97;71.51;102542.47;5129296;27;20023;-57
2022/08/09 03:06:41;;;;;;;8.05;5.80;;;;;;;17.03;71.60;102558.19;5114960;28;20023;-57
2022/08/09 03:09:09;;;;;;;8.40;5.60;;;;;;;16.96;71.57;102546.09;5119687;27;20051;-58
2022/08/09 03:11:36;;;;;;;8.05;6.07;;;;;;;16.96;71.69;102548.78;5124774;27;20464;-58
2022/08/09 03:14:02;;;;;;;7.85;5.18;;;;;;;16.95;71.78;102548.88;5114153;27;20516;-58
2022/08/09 03:16:28;;;;;;;8.52;5.55;;;;;;;16.83;72.35;102553.22;5130981;27;20051;-58
2022/08/09 03:18:55;;;;;;;8.98;5.60;;;;;;;16.85;72.28;102559.31;5134645;27;20113;-58
2022/08/09 03:21:23;;;;;;;7.00;6.18;;;;;;;16.84;72.27;102556.75;5129345;27;20031;-57
2022/08/09 03:23:49;;;;;;;6.90;5.90;;;;;;;16.87;72.11;102559.25;5115570;27;20023;-58
2022/08/09 03:26:19;;;;;;;8.43;6.40;;;;;;;16.91;71.98;102550.91;5117004;27;20299;-58
2022/08/09 03:28:48;;;;;;;9.15;6.38;;;;;;;16.76;72.60;102549.16;5119513;27;20556;-58
2022/08/09 03:31:14;;;;;;;;;;;;;;;16.97;71.03;102557.69;5110912;27;20037;-58
2022/08/09 03:33:40;;;;;;;9.85;6.80;;;;;;;16.77;72.48;102556.28;5114535;27;20363;-58
2022/08/09 03:36:07;;;;;;;11.27;6.90;;;;;;;16.67;72.90;102557.75;5108919;28;20027;-58
2022/08/09 03:38:34;;;;;;;8.52;6.20;;;;;;;16.67;72.98;102560.44;5115691;27;20062;-58
2022/08/09 03:41:02;;;;;;;7.68;6.28;;;;;;;16.66;73.03;102556.91;5132134;27;20080;-58
2022/08/09 03:43:28;;;;;;;8.40;7.15;;;;;;;16.64;72.89;102557.94;5130204;27;20556;-58
2022/08/09 03:45:54;;;;;;;7.30;6.32;;;;;;;16.64;73.02;102557.94;5117880;27;20030;-57
2022/08/09 03:48:24;;;;;;;9.35;6.72;;;;;;;16.61;73.09;102559.00;5115119;27;20031;-58
2022/08/09 03:50:51;;;;;;;8.43;6.10;;;;;;;16.44;73.50;102564.53;5133404;27;20080;-57
2022/08/09 03:53:19;;;;;;;7.10;6.38;;;;;;;16.53;73.73;102563.97;5130979;27;20037;-58
2022/08/09 03:55:44;;;;;;;9.13;6.15;;;;;;;16.42;73.41;102561.09;5124220;27;20118;-58
2022/08/09 03:58:10;;;;;;;9.38;6.60;;;;;;;16.56;73.47;102569.19;5112900;28;20118;-57
2022/08/09 04:00:40;;;;;;;9.00;6.43;;;;;;;16.47;73.54;102562.53;5103281;27;20044;-58
2022/08/09 04:03:06;;;;;;;9.23;5.97;;;;;;;16.43;73.59;102566.34;5122444;27;20049;-58
2022/08/09 04:05:31;;;;;;;9.30;6.90;;;;;;;16.52;73.21;102565.78;5119502;27;20055;-58
2022/08/09 04:07:57;;;;;;;7.18;6.05;;;;;;;16.55;73.41;102554.84;5114646;27;20074;-58
2022/08/09 04:10:23;;;;;;;7.65;6.25;;;;;;;16.53;73.48;102558.59;5096045;27;20111;-58
2022/08/09 04:12:50;;;;;;;8.00;6.40;;;;;;;16.53;73.56;102553.22;5133912;27;20069;-58
2022/08/09 04:15:17;;;;;;;11.73;6.95;;;;;;;16.35;73.93;102557.88;5120479;27;20023;-58
2022/08/09 04:17:44;;;;;;;7.75;6.93;;;;;;;16.43;73.88;102560.13;5119957;27;20035;-58
2022/08/09 04:20:11;;;;;;;8.13;6.78;;;;;;;16.30;74.09;102555.50;5112787;27;20318;-58
2022/08/09 04:22:37;;;;;;;9.50;6.40;;;;;;;16.35;73.95;102557.88;5115511;27;20016;-58
2022/08/09 04:25:04;;;;;;;7.47;6.50;;;;;;;16.43;73.87;102558.28;5141772;27;20026;-58
2022/08/09 04:27:30;;;;;;;9.52;7.22;;;;;;;16.39;73.64;102559.44;5114238;27;20118;-57
2022/08/09 04:29:58;;;;;;;11.43;6.97;;;;;;;16.39;74.13;102575.56;5112794;27;20027;-58
2022/08/09 04:32:27;;;;;;;9.27;7.22;;;;;;;16.41;74.03;102572.75;5124533;27;20118;-58
2022/08/09 04:34:52;;;;;;;8.93;7.27;;;;;;;16.31;74.25;102573.31;5115567;27;20031;-58
2022/08/09 04:37:18;;;;;;;10.57;7.07;;;;;;;16.25;74.48;102583.56;5104327;27;20799;-58
2022/08/09 04:39:47;;;;;;;9.00;7.43;;;;;;;16.17;74.85;102584.00;5117825;27;20101;-58
2022/08/09 04:42:13;;;;;;;12.40;7.53;;;;;;;16.15;74.84;102588.63;5100025;28;20030;-57
2022/08/09 04:44:39;;;;;;;9.23;7.30;;;;;;;16.27;74.74;102584.34;5093389;28;20031;-58
2022/08/09 04:47:05;;;;;;;9.20;7.28;;;;;;;16.29;74.88;102587.78;5118179;27;20050;-57
2022/08/09 04:49:32;;;;;;;11.68;7.05;;;;;;;16.23;75.06;102588.16;5121260;27;20035;-58
2022/08/09 04:51:58;;;;;;;10.63;7.65;;;;;;;16.32;74.83;102582.22;5091906;27;20563;-58
2022/08/09 04:54:26;;;;;;;9.55;7.13;;;;;;;16.28;75.14;102586.06;5117641;27;20032;-58
2022/08/09 04:56:52;;;;;;;14.25;7.57;;;;;;;16.23;74.90;102583.66;5078420;28;20028;-58
2022/08/09 04:59:18;;;;;;;19.20;7.93;;;;;;;16.21;75.35;102598.16;5126868;27;20102;-57
2022/08/09 05:01:43;;;;;;;8.95;7.80;;;;;;;16.27;75.37;102593.28;5124983;27;20023;-58
2022/08/09 05:04:09;;;;;;;9.43;8.45;;;;;;;16.30;75.29;102593.09;5126380;27;20030;-58
2022/08/09 05:06:35;;;;;;;13.55;8.50;;;;;;;16.25;75.34;102597.84;5112785;27;20100;-57
2022/08/09 05:09:00;;;;;;;10.55;8.27;;;;;;;16.29;75.55;102601.22;5128043;27;20474;-58
2022/08/09 05:11:26;;;;;;;9.90;8.40;;;;;;;16.32;75.33;102607.28;5120454;27;20026;-58
2022/08/09 05:13:52;;;;;;;11.15;8.38;;;;;;;16.37;75.44;102596.25;5114096;27;20019;-58
2022/08/09 05:16:17;;;;;;;9.13;8.23;;;;;;;16.40;75.36;102604.13;5132777;27;20055;-58
2022/08/09 05:18:46;;;;;;;9.40;8.27;;;;;;;16.50;74.99;102607.13;5114718;27;20031;-58
2022/08/09 05:21:14;;;;;;;12.02;8.13;;;;;;;16.43;75.21;102603.94;5094297;28;20024;-58
2022/08/09 05:23:39;;;;;;;10.32;8.73;;;;;;;16.54;74.77;102595.25;5077597;28;20483;-58
2022/08/09 05:26:07;;;;;;;10.38;8.77;;;;;;;16.72;74.48;102602.19;5094981;27;20085;-58
2022/08/09 05:28:33;;;;;;;12.40;9.10;;;;;;;16.65;74.84;102605.34;5132491;27;20027;-58
2022/08/09 05:30:58;;;;;;;10.80;9.18;;;;;;;16.73;74.58;102603.06;5099368;28;20097;-57
2022/08/09 05:33:24;;;;;;;12.85;9.27;;;;;;;16.75;74.56;102606.53;5112010;28;20475;-58
2022/08/09 05:35:49;;;;;;;11.48;9.23;;;;;;;16.84;74.25;102597.94;5093836;28;20034;-58
2022/08/09 05:38:15;;;;;;;9.70;8.43;;;;;;;16.86;74.10;102592.47;5108577;27;20038;-58
2022/08/09 05:40:43;;;;;;;11.02;8.88;;;;;;;16.88;74.04;102602.13;5122307;27;20066;-57
2022/08/09 05:43:08;;;;;;;13.18;9.18;;;;;;;16.95;74.15;102600.81;5095717;27;20078;-58
2022/08/09 05:45:34;;;;;;;10.18;9.05;;;;;;;16.92;74.49;102608.22;5131782;27;20076;-58
2022/08/09 05:47:59;;;;;;;13.20;9.32;;;;;;;17.03;74.11;102617.34;5129215;27;20031;-57
2022/08/09 05:50:25;;;;;;;17.63;9.75;;;;;;;17.02;74.38;102612.03;5111459;27;20031;-58
2022/08/09 05:52:51;;;;;;;12.75;9.57;;;;;;;17.09;74.05;102616.09;5112349;27;20027;-58
2022/08/09 05:55:18;;;;;;;12.70;9.50;;;;;;;17.13;74.05;102608.69;5120570;27;20035;-58
2022/08/09 05:57:43;;;;;;;13.48;9.30;;;;;;;17.17;73.80;102610.22;5111478;27;20390;-58
2022/08/09 06:00:10;;;;;;;11.88;9.13;;;;;;;17.30;73.78;102613.88;5096748;27;20102;-57
2022/08/09 06:02:36;;;;;;;10.90;9.75;;;;;;;17.40;73.47;102625.78;5114157;28;20192;-58
2022/08/09 06:05:01;;;;;;;13.35;9.25;;;;;;;17.44;73.54;102624.63;5132261;27;20118;-57
2022/08/09 06:07:28;;;;;;;10.75;9.18;;;;;;;17.46;73.65;102628.06;5123843;27;20046;-58
2022/08/09 06:09:54;;;;;;;12.18;9.73;;;;;;;17.47;73.33;102621.75;5111929;28;20015;-58
2022/08/09 06:12:20;;;;;;;12.13;8.93;;;;;;;17.58;73.25;102621.03;5111729;28;20494;-57
2022/08/09 06:14:46;;;;;;;11.68;9.48;;;;;;;17.61;73.21;102619.97;5110939;28;20555;-57
2022/08/09 06:17:11;;;;;;;15.45;9.43;;;;;;;17.78;72.69;102627.00;5112207;28;20024;-58
2022/08/09 06:19:37;;;;;;;10.77;8.88;;;;;;;17.79;72.66;102624.19;5107513;28;20028;-58
2022/08/09 06:22:03;;;;;;;11.32;9.32;;;;;;;17.91;72.48;102638.69;5111745;28;20050;-58
2022/08/09 06:24:29;;;;;;;13.20;9.48;;;;;;;17.91;72.29;102627.91;5114187;27;20502;-58
2022/08/09 06:26:57;;;;;;;10.57;9.13;;;;;;;18.09;72.26;102637.50;5149456;27;20023;-58
2022/08/09 06:29:24;;;;;;;13.20;9.35;;;;;;;18.22;71.37;102644.75;5119361;28;20040;-58
2022/08/09 06:31:49;;;;;;;12.23;8.77;;;;;;;18.23;71.02;102633.84;5111026;28;20099;-57
2022/08/09 06:34:15;;;;;;;11.02;9.10;;;;;;;18.29;70.78;102638.81;5093304;28;20088;-58
2022/08/09 06:36:41;;;;;;;10.90;9.15;;;;;;;18.45;70.73;102640.50;5093194;28;20032;-58
2022/08/09 06:39:10;;;;;;;11.73;9.13;;;;;;;18.52;70.40;102644.50;5082544;28;20042;-57
2022/08/09 06:41:36;;;;;;;13.40;9.18;;;;;;;18.58;70.34;102639.56;5112997;28;20031;-57
2022/08/09 06:44:02;;;;;;;13.07;9.73;;;;;;;18.50;70.88;102641.94;5117659;28;20062;-58
2022/08/09 06:46:29;;;;;;;11.63;9.68;;;;;;;18.47;70.98;102642.16;5100669;28;20055;-58
2022/08/09 06:48:55;;;;;;;11.80;9.85;;;;;;;18.50;71.21;102639.25;5101065;28;20039;-58
2022/08/09 06:51:20;;;;;;;10.55;8.82;;;;;;;18.49;70.86;102639.31;5128225;28;20114;-57
2022/08/09 06:53:46;;;;;;;11.63;8.85;;;;;;;18.47;71.38;102638.56;5086405;28;20035;-58
2022/08/09 06:56:11;;;;;;;9.95;8.88;;;;;;;18.59;71.03;102651.22;5127711;28;20055;-58
2022/08/09 06:58:38;;;;;;;11.35;9.45;;;;;;;18.70;71.18;102651.31;5105269;28;20034;-58
2022/08/09 07:01:04;;;;;;;11.65;9.45;;;;;;;18.77;70.49;102633.81;5125045;27;20026;-58
2022/08/09 07:03:32;;;;;;;14.07;9.35;;;;;;;18.84;70.31;102636.94;5098211;27;20035;-58
2022/08/09 07:05:58;;;;;;;12.57;9.60;;;;;;;18.86;70.37;102653.88;5079619;28;20039;-58
2022/08/09 07:08:23;;;;;;;13.85;9.30;;;;;;;18.89;70.17;102653.66;5100238;27;20038;-58
2022/08/09 07:10:48;;;;;;;15.38;9.85;;;;;;;18.98;69.76;102653.03;5106922;28;20069;-58
2022/08/09 07:13:14;;;;;;;12.18;10.10;;;;;;;18.97;69.66;102656.69;5113988;28;20100;-58
2022/08/09 07:15:40;;;;;;;14.63;9.68;;;;;;;19.01;69.42;102646.56;5099854;27;20535;-58
2022/08/09 07:18:06;;;;;;;11.23;9.23;;;;;;;19.08;70.10;102649.66;5114903;27;20066;-58
2022/08/09 07:20:31;;;;;;;11.13;9.48;;;;;;;19.13;69.92;102644.81;5091823;28;20028;-58
2022/08/09 07:22:58;;;;;;;11.25;8.93;;;;;;;19.16;69.54;102647.31;5116171;27;20387;-58
2022/08/09 07:25:25;;;;;;;12.57;9.63;;;;;;;19.15;69.17;102649.16;5098229;27;20106;-58
2022/08/09 07:27:51;;;;;;;12.00;9.73;;;;;;;19.29;69.34;102654.44;5119219;27;20126;-58
2022/08/09 07:30:19;;;;;;;14.63;10.38;;;;;;;19.35;69.41;102652.25;5117590;27;20118;-57
2022/08/09 07:32:45;;;;;;;16.33;10.68;;;;;;;19.33;69.12;102660.47;5124041;27;20063;-57
2022/08/09 07:35:11;;;;;;;12.05;9.50;;;;;;;19.43;68.69;102652.56;5096064;28;20510;-58
2022/08/09 07:37:43;;;;;;;14.13;9.23;;;;;;;19.50;68.69;102660.13;5111491;27;20018;-58
2022/08/09 07:40:14;;;;;;;13.10;9.70;;;;;;;19.63;68.74;102661.94;5120372;27;20042;-58
2022/08/09 07:42:54;;;;;;;13.30;9.50;;;;;;;19.65;68.35;102650.06;5122179;27;20044;-58
2022/08/09 07:45:28;;;;;;;11.20;9.20;;;;;;;19.77;68.43;102651.03;5105121;27;20068;-58
2022/08/09 07:47:57;;;;;;;11.55;9.57;;;;;;;19.86;68.46;102650.34;5122340;27;20100;-58
2022/08/09 07:50:27;;;;;;;13.20;9.80;;;;;;;19.88;67.60;102656.50;5133330;27;20023;-58
2022/08/09 07:52:53;;;;;;;12.65;10.02;;;;;;;19.93;67.58;102654.28;5126904;27;20114;-58
2022/08/09 07:55:19;;;;;;;13.20;9.68;;;;;;;19.99;66.81;102661.09;5124484;27;20027;-58
2022/08/09 07:57:47;;;;;;;15.35;8.85;;;;;;;20.05;65.84;102660.63;5129534;27;20464;-58
2022/08/09 08:00:17;;;;;;;13.18;8.82;;;;;;;20.13;65.77;102654.66;5100995;28;20032;-58
2022/08/09 08:02:43;;;;;;;12.85;8.90;;;;;;;20.27;65.79;102664.44;5127451;27;20027;-58
2022/08/09 08:05:12;;;;;;;11.77;8.80;;;;;;;20.39;66.13;102669.78;5124904;27;20027;-58
2022/08/09 08:07:38;;;;;;;13.73;8.55;;;;;;;20.51;65.05;102672.53;5117328;27;20089;-58
2022/08/09 08:10:06;;;;;;;12.32;8.60;;;;;;;20.51;64.53;102673.38;5122351;27;20479;-58
2022/08/09 08:12:32;;;;;;;9.40;7.82;;;;;;;20.59;64.76;102676.41;5119757;27;20027;-58
2022/08/09 08:15:00;;;;;;;11.98;8.65;;;;;;;20.67;64.16;102670.38;5129760;27;20066;-58
2022/08/09 08:17:25;;;;;;;11.55;8.27;;;;;;;20.78;63.63;102667.72;5124307;27;20027;-58
2022/08/09 08:19:51;;;;;;;16.38;8.48;;;;;;;20.81;63.37;102672.91;5103756;27;20038;-57
2022/08/09 08:22:17;;;;;;;8.55;6.72;;;;;;;20.94;63.33;102670.13;5127222;27;20092;-57
2022/08/09 08:24:43;;;;;;;9.55;6.97;;;;;;;21.05;62.57;102663.84;5097841;27;20035;-57
2022/08/09 08:27:08;;;;;;;9.63;7.75;;;;;;;21.08;62.89;102658.19;5115498;27;20104;-57
2022/08/09 08:29:36;;;;;;;12.82;6.90;;;;;;;21.17;61.33;102659.31;5115168;27;20034;-57
2022/08/09 08:32:04;;;;;;;10.48;6.97;;;;;;;21.15;61.74;102670.28;5115213;27;20027;-57
2022/08/09 08:34:29;;;;;;;8.30;7.32;;;;;;;21.23;61.66;102658.81;5115049;27;20032;-57
2022/08/09 08:36:55;;;;;;;11.45;7.60;;;;;;;21.28;61.59;102662.88;5133751;27;20030;-57
2022/08/09 08:39:21;;;;;;;12.45;7.05;;;;;;;21.41;61.30;102670.91;5115018;27;20068;-57
2022/08/09 08:41:47;;;;;;;8.25;6.53;;;;;;;21.45;59.56;102671.53;5133826;27;20501;-57
2022/08/09 08:44:13;;;;;;;10.50;6.07;;;;;;;21.50;59.74;102667.50;5131464;27;20130;-57
2022/08/09 08:46:39;;;;;;;11.18;6.30;;;;;;;21.56;59.24;102663.44;5133687;27;20027;-57
2022/08/09 08:49:10;;;;;;;9.98;6.07;;;;;;;21.66;59.97;102660.81;5133647;27;20569;-57
2022/08/09 08:51:37;;;;;;;10.80;6.05;;;;;;;21.74;59.38;102661.06;5133411;27;20023;-57
2022/08/09 08:54:06;;;;;;;9.30;5.75;;;;;;;21.83;59.40;102659.44;5131261;27;20023;-57
2022/08/09 08:56:35;;;;;;;;;;;;;;;21.89;59.72;102661.66;5133941;27;20019;-57
2022/08/09 08:59:09;;;;;;;6.82;5.15;;;;;;;21.85;58.61;102643.91;5114623;27;19907;-57
2022/08/09 09:01:35;;;;;;;8.30;5.30;;;;;;;22.00;57.64;102662.47;5133435;27;20027;-57
2022/08/09 09:04:06;;;;;;;7.13;5.38;;;;;;;22.15;57.93;102664.91;5131938;27;20439;-58
2022/08/09 09:06:34;;;;;;;8.68;4.10;;;;;;;22.21;56.35;102677.97;5133499;27;20031;-57
2022/08/09 09:09:01;;;;;;;7.40;4.30;;;;;;;22.33;56.21;102679.66;5133000;27;20027;-57
2022/08/09 09:11:28;;;;;;;8.70;4.45;;;;;;;22.36;55.29;102683.97;5133142;27;20268;-57
2022/08/09 09:13:58;;;;;;;6.85;3.47;;;;;;;22.36;55.34;102686.69;5132624;27;20023;-57
2022/08/09 09:16:27;;;;;;;7.78;4.07;;;;;;;22.45;54.51;102683.19;5131835;27;20019;-58
2022/08/09 09:18:54;;;;;;;10.90;4.10;;;;;;;22.50;54.19;102686.38;5133160;27;20066;-57
2022/08/09 09:21:21;;;;;;;5.18;3.38;;;;;;;22.54;53.86;102689.69;5133058;27;20364;-57
2022/08/09 09:23:50;;;;;;;9.00;4.10;;;;;;;22.61;54.04;102680.03;5132555;27;20143;-57
2022/08/09 09:26:18;;;;;;;9.10;4.20;;;;;;;22.74;54.46;102688.00;5131564;27;20407;-57
2022/08/09 09:28:45;;;;;;;6.33;3.00;;;;;;;22.80;53.36;102677.47;5115149;27;20027;-57
2022/08/09 09:31:18;;;;;;;4.78;2.83;;;;;;;22.93;53.60;102693.53;5114470;27;20636;-57
2022/08/09 09:33:46;;;;;;;7.10;2.72;;;;;;;23.02;53.08;102690.06;5115207;27;20031;-57
2022/08/09 09:36:13;;;;;;;4.70;2.65;;;;;;;23.07;52.17;102678.81;5131125;27;20023;-57
2022/08/09 09:38:45;;;;;;;5.97;3.10;;;;;;;23.27;52.07;102686.06;5132435;27;20122;-57
2022/08/09 09:41:29;;;;;;;3.30;2.80;;;;;;;23.22;51.46;102682.03;5132868;27;20160;-58
2022/08/09 09:43:57;;;;;;;5.05;2.38;;;;;;;23.39;51.48;102675.97;5110372;28;20047;-57
2022/08/09 09:46:30;;;;;;;5.43;2.55;;;;;;;23.33;51.60;102671.09;5110447;28;20089;-57
2022/08/09 09:49:07;;;;;;;7.28;2.55;;;;;;;23.41;51.27;102675.81;5110680;28;20015;-57
2022/08/09 09:51:36;;;;;;;3.45;2.28;;;;;;;23.48;49.16;102680.59;5111867;28;20395;-57
2022/08/09 09:54:04;;;;;;;6.32;2.55;;;;;;;23.61;49.97;102684.91;5111647;28;20437;-57
2022/08/09 09:56:32;;;;;;;3.65;1.92;;;;;;;23.58;50.05;102669.75;5111796;28;20024;-57
2022/08/09 09:58:57;;;;;;;5.95;2.47;;;;;;;23.70;50.49;102679.53;5109351;28;20024;-57
2022/08/09 10:01:23;;;;;;;3.42;2.05;;;;;;;23.85;50.33;102671.84;5111927;28;20031;-57
2022/08/09 10:03:50;;;;;;;2.42;1.35;;;;;;;23.92;46.67;102681.19;5110524;28;20032;-57
2022/08/09 10:06:16;;;;;;;4.57;1.85;;;;;;;24.02;46.35;102686.63;5107057;28;20477;-57
2022/08/09 10:08:48;;;;;;;2.88;1.50;;;;;;;24.03;45.11;102683.78;5091735;28;20027;-57
2022/08/09 10:11:19;;;;;;;5.80;1.70;;;;;;;24.08;45.80;102677.06;5091936;28;20028;-57
2022/08/09 10:13:47;;;;;;;3.80;1.77;;;;;;;24.15;46.06;102676.38;5090992;28;20028;-57
2022/08/09 10:16:13;;;;;;;1.73;1.33;;;;;;;24.21;45.29;102686.69;5091655;28;20051;-57
2022/08/09 10:18:49;;;;;;;3.50;1.52;;;;;;;24.16;44.90;102685.38;5092336;28;20504;-57
2022/08/09 10:21:15;;;;;;;4.18;1.38;;;;;;;24.28;44.37;102686.13;5091402;28;20541;-57
2022/08/09 10:23:43;;;;;;;4.78;1.55;;;;;;;24.23;44.41;102687.38;5091674;28;20468;-57
2022/08/09 10:26:09;;;;;;;5.25;1.55;;;;;;;24.33;45.08;102678.41;5095983;28;20469;-57
2022/08/09 10:28:36;;;;;;;4.13;1.50;;;;;;;24.45;44.25;102680.00;5100790;28;20073;-57
2022/08/09 10:31:02;;;;;;;4.43;1.55;;;;;;;24.45;44.23;102682.72;5090162;28;20380;-57
2022/08/09 10:33:28;;;;;;;3.35;1.33;;;;;;;24.54;43.34;102690.03;5093274;28;20541;-57
2022/08/09 10:35:55;;;;;;;2.13;1.30;;;;;;;24.57;44.38;102673.41;5094955;28;20510;-57
2022/08/09 10:38:21;;;;;;;4.57;1.40;;;;;;;24.63;44.34;102677.41;5096830;28;20020;-57
2022/08/09 10:40:46;;;;;;;4.10;1.50;;;;;;;24.66;44.02;102669.81;5094132;28;20481;-57
2022/08/09 10:43:12;;;;;;;3.35;1.40;;;;;;;24.75;43.05;102670.81;5102209;28;20079;-57
2022/08/09 10:45:43;;;;;;;6.05;1.30;;;;;;;24.76;43.56;102666.22;5099274;27;20016;-57
2022/08/09 10:48:16;;;;;;;3.97;1.35;;;;;;;24.88;43.75;102668.66;5135556;27;20102;-57
2022/08/09 10:51:13;;;;;;;5.05;1.23;;;;;;;24.98;43.33;102663.16;5135891;27;20028;-57
2022/08/09 10:54:09;;;;;;;2.75;1.40;;;;;;;25.02;42.74;102661.84;5135876;27;20103;-56
2022/08/09 10:56:37;;;;;;;2.40;1.17;;;;;;;24.90;42.40;102658.44;5133840;27;20494;-57
2022/08/09 10:59:21;;;;;;;4.90;1.40;;;;;;;25.11;43.26;102651.94;5135515;27;20027;-56
2022/08/09 11:01:51;;;;;;;3.95;1.25;;;;;;;25.17;40.70;102648.66;5135746;27;20079;-57
2022/08/09 11:04:35;;;;;;;2.42;1.30;;;;;;;25.17;42.04;102645.09;5135361;27;20094;-57
2022/08/09 11:07:00;;;;;;;2.20;1.05;;;;;;;25.23;41.41;102639.03;5119423;27;20046;-57
2022/08/09 11:09:38;;;;;;;6.18;1.40;;;;;;;25.24;42.04;102640.78;5115130;28;20028;-56
2022/08/09 11:12:12;;;;;;;3.22;1.30;;;;;;;25.41;42.01;102648.13;5115308;28;20038;-56
2022/08/09 11:14:47;;;;;;;2.97;1.42;;;;;;;25.33;40.96;102648.91;5114570;28;20104;-56
2022/08/09 11:17:12;;;;;;;3.08;1.23;;;;;;;25.46;41.14;102648.53;5116097;27;20032;-56
2022/08/09 11:19:56;;;;;;;3.42;1.20;;;;;;;25.54;40.18;102650.53;5114689;28;20023;-56
2022/08/09 11:22:41;;;;;;;2.60;1.15;;;;;;;25.60;40.95;102648.03;5096693;28;20019;-57
2022/08/09 11:25:14;;;;;;;6.63;1.40;;;;;;;25.55;40.38;102650.34;5116775;27;20032;-57
2022/08/09 11:27:52;;;;;;;4.75;1.27;;;;;;;25.67;40.79;102644.72;5134769;27;20031;-56
2022/08/09 11:30:20;;;;;;;2.17;1.38;;;;;;;25.77;40.25;102648.25;5099971;27;20110;-57